sensor_id;sensor_type;location;lat;lon;timestamp;P1;durP1;ratioP1;P2;durP2;ratioP2
37087;SDS011;23002;52.676;6.432;2023-04-02T00:07:50;5.68;;;2.72;;
37087;SDS011;23002;52.676;6.432;2023-04-02T00:13:42;9.90;;;3.63;;
37087;SDS011;23002;52.676;6.432;2023-04-02T00:15:43;7.07;;;3.10;;
37087;SDS011;23002;52.676;6.432;2023-04-02T00:18:20;6.90;;;2.70;;
37087;SDS011;23002;52.676;6.432;2023-04-02T00:20:52;5.57;;;3.10;;
37087;SDS011;23002;52.676;6.432;2023-04-02T00:23:21;7.78;;;3.05;;
37087;SDS011;23002;52.676;6.432;2023-04-02T00:25:49;7.28;;;3.15;;
37087;SDS011;23002;52.676;6.432;2023-04-02T00:28:20;8.20;;;3.90;;
37087;SDS011;23002;52.676;6.432;2023-04-02T00:30:48;5.82;;;3.00;;
37087;SDS011;23002;52.676;6.432;2023-04-02T00:33:17;5.90;;;3.10;;
37087;SDS011;23002;52.676;6.432;2023-04-02T00:35:46;8.80;;;3.40;;
37087;SDS011;23002;52.676;6.432;2023-04-02T00:38:17;8.35;;;3.33;;
37087;SDS011;23002;52.676;6.432;2023-04-02T00:40:45;6.07;;;2.83;;
37087;SDS011;23002;52.676;6.432;2023-04-02T00:43:13;8.25;;;3.17;;
37087;SDS011;23002;52.676;6.432;2023-04-02T00:45:42;5.68;;;3.03;;
37087;SDS011;23002;52.676;6.432;2023-04-02T00:48:22;5.97;;;3.10;;
37087;SDS011;23002;52.676;6.432;2023-04-02T00:50:51;6.85;;;2.67;;
37087;SDS011;23002;52.676;6.432;2023-04-02T00:53:28;9.00;;;3.20;;
37087;SDS011;23002;52.676;6.432;2023-04-02T00:55:56;7.30;;;3.42;;
37087;SDS011;23002;52.676;6.432;2023-04-02T00:58:25;6.18;;;2.53;;
37087;SDS011;23002;52.676;6.432;2023-04-02T01:00:52;7.22;;;2.85;;
37087;SDS011;23002;52.676;6.432;2023-04-02T01:05:58;5.80;;;3.17;;
37087;SDS011;23002;52.676;6.432;2023-04-02T01:11:17;7.80;;;3.55;;
37087;SDS011;23002;52.676;6.432;2023-04-02T01:13:52;7.13;;;2.65;;
37087;SDS011;23002;52.676;6.432;2023-04-02T01:19:18;4.78;;;3.00;;
37087;SDS011;23002;52.676;6.432;2023-04-02T01:24:22;5.75;;;3.17;;
37087;SDS011;23002;52.676;6.432;2023-04-02T01:26:53;5.20;;;3.15;;
37087;SDS011;23002;52.676;6.432;2023-04-02T01:29:32;6.60;;;3.28;;
37087;SDS011;23002;52.676;6.432;2023-04-02T01:32:01;8.45;;;3.78;;
37087;SDS011;23002;52.676;6.432;2023-04-02T01:34:29;11.00;;;5.10;;
37087;SDS011;23002;52.676;6.432;2023-04-02T01:40:04;7.75;;;3.53;;
37087;SDS011;23002;52.676;6.432;2023-04-02T01:42:37;6.30;;;3.28;;
37087;SDS011;23002;52.676;6.432;2023-04-02T01:45:09;7.45;;;4.10;;
37087;SDS011;23002;52.676;6.432;2023-04-02T01:47:36;6.07;;;3.05;;
37087;SDS011;23002;52.676;6.432;2023-04-02T01:50:12;8.02;;;3.10;;
37087;SDS011;23002;52.676;6.432;2023-04-02T01:52:43;9.02;;;3.40;;
37087;SDS011;23002;52.676;6.432;2023-04-02T01:55:12;5.43;;;3.15;;
37087;SDS011;23002;52.676;6.432;2023-04-02T01:57:40;4.28;;;3.08;;
37087;SDS011;23002;52.676;6.432;2023-04-02T02:00:12;9.23;;;2.88;;
37087;SDS011;23002;52.676;6.432;2023-04-02T02:02:40;6.75;;;2.80;;
37087;SDS011;23002;52.676;6.432;2023-04-02T02:05:11;8.75;;;2.60;;
37087;SDS011;23002;52.676;6.432;2023-04-02T02:07:38;3.37;;;1.90;;
37087;SDS011;23002;52.676;6.432;2023-04-02T02:10:07;6.68;;;2.80;;
37087;SDS011;23002;52.676;6.432;2023-04-02T02:12:36;4.82;;;2.38;;
37087;SDS011;23002;52.676;6.432;2023-04-02T02:15:03;7.03;;;3.08;;
37087;SDS011;23002;52.676;6.432;2023-04-02T02:17:30;3.97;;;2.25;;
37087;SDS011;23002;52.676;6.432;2023-04-02T02:19:59;3.90;;;2.40;;
37087;SDS011;23002;52.676;6.432;2023-04-02T02:22:30;4.80;;;2.20;;
37087;SDS011;23002;52.676;6.432;2023-04-02T02:25:03;5.40;;;1.95;;
37087;SDS011;23002;52.676;6.432;2023-04-02T02:35:21;5.60;;;1.73;;
37087;SDS011;23002;52.676;6.432;2023-04-02T02:37:52;9.13;;;1.52;;
37087;SDS011;23002;52.676;6.432;2023-04-02T02:40:23;6.10;;;1.30;;
37087;SDS011;23002;52.676;6.432;2023-04-02T02:42:56;5.90;;;1.73;;
37087;SDS011;23002;52.676;6.432;2023-04-02T02:45:26;3.58;;;1.50;;
37087;SDS011;23002;52.676;6.432;2023-04-02T02:47:54;1.92;;;1.33;;
37087;SDS011;23002;52.676;6.432;2023-04-02T02:50:23;3.30;;;1.15;;
37087;SDS011;23002;52.676;6.432;2023-04-02T02:52:56;3.88;;;1.48;;
37087;SDS011;23002;52.676;6.432;2023-04-02T02:55:25;3.13;;;1.92;;
37087;SDS011;23002;52.676;6.432;2023-04-02T02:57:57;5.07;;;2.22;;
37087;SDS011;23002;52.676;6.432;2023-04-02T03:00:24;1.77;;;1.25;;
37087;SDS011;23002;52.676;6.432;2023-04-02T03:02:52;6.68;;;1.50;;
37087;SDS011;23002;52.676;6.432;2023-04-02T03:05:22;4.00;;;1.60;;
37087;SDS011;23002;52.676;6.432;2023-04-02T03:07:50;4.50;;;2.20;;
37087;SDS011;23002;52.676;6.432;2023-04-02T03:10:19;7.50;;;1.63;;
37087;SDS011;23002;52.676;6.432;2023-04-02T03:12:49;2.28;;;1.20;;
37087;SDS011;23002;52.676;6.432;2023-04-02T03:15:24;4.00;;;1.23;;
37087;SDS011;23002;52.676;6.432;2023-04-02T03:18:01;5.78;;;1.58;;
37087;SDS011;23002;52.676;6.432;2023-04-02T03:20:33;3.80;;;1.27;;
37087;SDS011;23002;52.676;6.432;2023-04-02T03:23:07;8.18;;;1.35;;
37087;SDS011;23002;52.676;6.432;2023-04-02T03:25:39;3.03;;;1.70;;
37087;SDS011;23002;52.676;6.432;2023-04-02T03:28:10;3.72;;;1.85;;
37087;SDS011;23002;52.676;6.432;2023-04-02T03:33:31;3.78;;;1.60;;
37087;SDS011;23002;52.676;6.432;2023-04-02T03:38:48;3.33;;;1.55;;
37087;SDS011;23002;52.676;6.432;2023-04-02T03:41:18;3.65;;;1.58;;
37087;SDS011;23002;52.676;6.432;2023-04-02T03:43:51;1.67;;;1.02;;
37087;SDS011;23002;52.676;6.432;2023-04-02T03:46:25;6.35;;;2.03;;
37087;SDS011;23002;52.676;6.432;2023-04-02T03:48:53;2.95;;;1.50;;
37087;SDS011;23002;52.676;6.432;2023-04-02T03:51:44;6.20;;;1.40;;
37087;SDS011;23002;52.676;6.432;2023-04-02T03:54:14;2.22;;;1.10;;
37087;SDS011;23002;52.676;6.432;2023-04-02T03:56:41;8.27;;;2.00;;
37087;SDS011;23002;52.676;6.432;2023-04-02T04:01:45;6.13;;;1.75;;
